sensor_id;sensor_type;location;lat;lon;timestamp;pressure;altitude;pressure_sealevel;temperature;humidity
23427;BME280;41148;45.420;10.952;2023-04-28T00:00:53;101075.56;;;12.78;52.87
23427;BME280;41148;45.420;10.952;2023-04-28T00:03:21;101075.38;;;12.82;52.60
23427;BME280;41148;45.420;10.952;2023-04-28T00:05:48;101063.28;;;12.71;52.88
23427;BME280;41148;45.420;10.952;2023-04-28T00:08:16;101078.44;;;12.70;53.93
23427;BME280;41148;45.420;10.952;2023-04-28T00:10:43;101070.00;;;12.54;53.70
23427;BME280;41148;45.420;10.952;2023-04-28T00:13:11;101057.13;;;12.39;54.37
23427;BME280;41148;45.420;10.952;2023-04-28T00:15:38;101072.28;;;12.39;55.02
23427;BME280;41148;45.420;10.952;2023-04-28T00:18:06;101060.06;;;12.30;54.34
23427;BME280;41148;45.420;10.952;2023-04-28T00:20:33;101054.72;;;12.30;54.59
23427;BME280;41148;45.420;10.952;2023-04-28T00:23:01;101065.09;;;12.41;54.44
23427;BME280;41148;45.420;10.952;2023-04-28T00:25:28;101059.13;;;12.31;54.17
23427;BME280;41148;45.420;10.952;2023-04-28T00:27:55;101062.94;;;12.22;55.11
23427;BME280;41148;45.420;10.952;2023-04-28T00:30:23;101066.13;;;12.37;55.84
23427;BME280;41148;45.420;10.952;2023-04-28T00:32:51;101053.91;;;12.28;56.32
23427;BME280;41148;45.420;10.952;2023-04-28T00:35:19;101068.50;;;12.16;57.02
23427;BME280;41148;45.420;10.952;2023-04-28T00:37:46;101050.88;;;12.09;57.75
23427;BME280;41148;45.420;10.952;2023-04-28T00:40:14;101051.00;;;12.04;58.40
23427;BME280;41148;45.420;10.952;2023-04-28T00:42:41;101058.28;;;11.99;58.61
23427;BME280;41148;45.420;10.952;2023-04-28T00:45:09;101066.44;;;11.93;59.00
23427;BME280;41148;45.420;10.952;2023-04-28T00:47:36;101068.84;;;12.02;59.16
23427;BME280;41148;45.420;10.952;2023-04-28T00:50:04;101060.69;;;12.09;58.93
23427;BME280;41148;45.420;10.952;2023-04-28T00:52:33;101065.72;;;12.19;59.29
23427;BME280;41148;45.420;10.952;2023-04-28T00:55:01;101057.25;;;12.03;59.66
23427;BME280;41148;45.420;10.952;2023-04-28T00:57:30;101065.88;;;12.13;59.85
23427;BME280;41148;45.420;10.952;2023-04-28T00:59:59;101063.16;;;12.15;60.02
23427;BME280;41148;45.420;10.952;2023-04-28T01:02:27;101057.13;;;12.08;60.31
23427;BME280;41148;45.420;10.952;2023-04-28T01:04:56;101054.59;;;12.03;60.78
23427;BME280;41148;45.420;10.952;2023-04-28T01:07:24;101053.63;;;12.06;60.55
23427;BME280;41148;45.420;10.952;2023-04-28T01:09:52;101063.16;;;12.16;60.89
23427;BME280;41148;45.420;10.952;2023-04-28T01:12:23;101042.97;;;12.04;61.02
23427;BME280;41148;45.420;10.952;2023-04-28T01:14:54;101054.78;;;11.96;61.52
23427;BME280;41148;45.420;10.952;2023-04-28T01:17:21;101058.09;;;12.06;62.03
23427;BME280;41148;45.420;10.952;2023-04-28T01:19:49;101055.25;;;12.12;62.00
23427;BME280;41148;45.420;10.952;2023-04-28T01:22:19;101068.59;;;12.12;62.17
23427;BME280;41148;45.420;10.952;2023-04-28T01:24:46;101054.41;;;12.10;62.12
23427;BME280;41148;45.420;10.952;2023-04-28T01:27:14;101047.50;;;12.02;62.50
23427;BME280;41148;45.420;10.952;2023-04-28T01:29:41;101048.50;;;11.98;62.49
23427;BME280;41148;45.420;10.952;2023-04-28T01:32:08;101053.66;;;12.04;63.06
23427;BME280;41148;45.420;10.952;2023-04-28T01:34:36;101040.50;;;11.98;63.22
23427;BME280;41148;45.420;10.952;2023-04-28T01:37:05;101044.00;;;12.00;62.62
23427;BME280;41148;45.420;10.952;2023-04-28T01:39:32;101039.94;;;11.86;62.90
23427;BME280;41148;45.420;10.952;2023-04-28T01:42:02;101045.94;;;11.94;63.05
23427;BME280;41148;45.420;10.952;2023-04-28T01:44:30;101053.91;;;11.95;63.10
23427;BME280;41148;45.420;10.952;2023-04-28T01:46:57;101062.66;;;12.02;62.73
23427;BME280;41148;45.420;10.952;2023-04-28T01:49:24;101052.75;;;12.06;62.71
23427;BME280;41148;45.420;10.952;2023-04-28T01:51:52;101054.53;;;12.05;62.70
23427;BME280;41148;45.420;10.952;2023-04-28T01:54:19;101059.72;;;12.11;62.51
23427;BME280;41148;45.420;10.952;2023-04-28T01:56:46;101065.97;;;12.10;63.34
23427;BME280;41148;45.420;10.952;2023-04-28T01:59:15;101069.53;;;12.11;63.01
23427;BME280;41148;45.420;10.952;2023-04-28T02:01:43;101071.28;;;12.12;63.03
23427;BME280;41148;45.420;10.952;2023-04-28T02:04:11;101072.94;;;12.16;63.26
23427;BME280;41148;45.420;10.952;2023-04-28T02:06:38;101067.63;;;12.14;63.17
23427;BME280;41148;45.420;10.952;2023-04-28T02:09:06;101072.09;;;12.14;63.68
23427;BME280;41148;45.420;10.952;2023-04-28T02:11:33;101071.22;;;12.13;63.33
23427;BME280;41148;45.420;10.952;2023-04-28T02:14:01;101076.56;;;12.13;63.75
23427;BME280;41148;45.420;10.952;2023-04-28T02:16:28;101071.41;;;12.07;63.86
23427;BME280;41148;45.420;10.952;2023-04-28T02:18:55;101070.75;;;11.99;64.67
23427;BME280;41148;45.420;10.952;2023-04-28T02:21:23;101075.44;;;12.22;63.71
23427;BME280;41148;45.420;10.952;2023-04-28T02:23:50;101076.75;;;12.07;64.00
23427;BME280;41148;45.420;10.952;2023-04-28T02:26:17;101058.53;;;11.90;65.52
23427;BME280;41148;45.420;10.952;2023-04-28T02:28:44;101058.38;;;11.95;65.08
23427;BME280;41148;45.420;10.952;2023-04-28T02:31:12;101067.19;;;11.98;65.51
23427;BME280;41148;45.420;10.952;2023-04-28T02:33:40;101063.97;;;11.86;65.55
23427;BME280;41148;45.420;10.952;2023-04-28T02:36:09;101076.25;;;11.93;65.49
23427;BME280;41148;45.420;10.952;2023-04-28T02:38:37;101080.72;;;11.92;65.35
23427;BME280;41148;45.420;10.952;2023-04-28T02:41:06;101077.84;;;12.00;65.42
23427;BME280;41148;45.420;10.952;2023-04-28T02:43:36;101074.50;;;11.92;65.54
23427;BME280;41148;45.420;10.952;2023-04-28T02:46:04;101076.50;;;11.84;65.60
23427;BME280;41148;45.420;10.952;2023-04-28T02:48:32;101073.91;;;11.81;65.48
23427;BME280;41148;45.420;10.952;2023-04-28T02:51:02;101072.13;;;11.81;65.93
23427;BME280;41148;45.420;10.952;2023-04-28T02:53:30;101074.09;;;11.73;66.21
23427;BME280;41148;45.420;10.952;2023-04-28T02:55:57;101079.31;;;11.78;66.39
23427;BME280;41148;45.420;10.952;2023-04-28T02:58:25;101085.47;;;11.81;66.30
23427;BME280;41148;45.420;10.952;2023-04-28T03:00:53;101083.09;;;11.69;66.88
23427;BME280;41148;45.420;10.952;2023-04-28T03:03:20;101092.03;;;11.68;66.38
23427;BME280;41148;45.420;10.952;2023-04-28T03:05:48;101094.44;;;11.77;66.22
23427;BME280;41148;45.420;10.952;2023-04-28T03:08:15;101086.59;;;11.71;65.91
23427;BME280;41148;45.420;10.952;2023-04-28T03:10:43;101092.25;;;11.59;66.27
23427;BME280;41148;45.420;10.952;2023-04-28T03:13:10;101098.66;;;11.52;66.65
23427;BME280;41148;45.420;10.952;2023-04-28T03:15:38;101109.75;;;11.35;67.30
23427;BME280;41148;45.420;10.952;2023-04-28T03:18:06;101115.91;;;11.37;67.60
23427;BME280;41148;45.420;10.952;2023-04-28T03:20:33;101122.22;;;11.34;67.82
23427;BME280;41148;45.420;10.952;2023-04-28T03:23:01;101120.56;;;11.29;68.09
23427;BME280;41148;45.420;10.952;2023-04-28T03:25:28;101113.22;;;11.00;69.16
23427;BME280;41148;45.420;10.952;2023-04-28T03:27:56;101105.19;;;11.03;69.39
23427;BME280;41148;45.420;10.952;2023-04-28T03:30:23;101099.41;;;10.84;70.06
23427;BME280;41148;45.420;10.952;2023-04-28T03:32:50;101092.19;;;10.87;69.64
23427;BME280;41148;45.420;10.952;2023-04-28T03:35:18;101087.59;;;10.94;69.50
23427;BME280;41148;45.420;10.952;2023-04-28T03:37:46;101088.56;;;10.90;69.81
23427;BME280;41148;45.420;10.952;2023-04-28T03:40:14;101090.16;;;11.00;69.70
23427;BME280;41148;45.420;10.952;2023-04-28T03:43:20;101082.81;;;11.08;69.30
23427;BME280;41148;45.420;10.952;2023-04-28T03:46:03;101083.13;;;10.96;69.46
23427;BME280;41148;45.420;10.952;2023-04-28T03:48:31;101084.50;;;10.75;70.53
23427;BME280;41148;45.420;10.952;2023-04-28T03:50:58;101092.59;;;10.69;70.50
23427;BME280;41148;45.420;10.952;2023-04-28T03:53:25;101095.22;;;10.72;70.21
23427;BME280;41148;45.420;10.952;2023-04-28T03:55:53;101094.28;;;10.75;70.55
23427;BME280;41148;45.420;10.952;2023-04-28T03:58:20;101089.69;;;10.81;70.16
23427;BME280;41148;45.420;10.952;2023-04-28T04:00:48;101091.66;;;10.73;70.19
23427;BME280;41148;45.420;10.952;2023-04-28T04:03:15;101095.03;;;10.81;70.35
23427;BME280;41148;45.420;10.952;2023-04-28T04:05:44;101100.28;;;10.84;70.90
23427;BME280;41148;45.420;10.952;2023-04-28T04:08:12;101102.34;;;10.72;71.95
23427;BME280;41148;45.420;10.952;2023-04-28T04:10:39;101101.19;;;10.83;71.29
23427;BME280;41148;45.420;10.952;2023-04-28T04:13:07;101088.06;;;10.74;71.21
23427;BME280;41148;45.420;10.952;2023-04-28T04:15:34;101096.84;;;10.78;71.46
23427;BME280;41148;45.420;10.952;2023-04-28T04:18:03;101095.47;;;10.62;71.51
23427;BME280;41148;45.420;10.952;2023-04-28T04:20:44;101103.03;;;10.81;70.93
23427;BME280;41148;45.420;10.952;2023-04-28T04:23:12;101105.72;;;10.78;70.22
23427;BME280;41148;45.420;10.952;2023-04-28T04:25:39;101112.59;;;10.88;70.23
23427;BME280;41148;45.420;10.952;2023-04-28T04:28:08;101112.81;;;10.79;70.66
23427;BME280;41148;45.420;10.952;2023-04-28T04:30:36;101114.63;;;10.77;70.98
23427;BME280;41148;45.420;10.952;2023-04-28T04:33:04;101113.69;;;10.81;71.00
23427;BME280;41148;45.420;10.952;2023-04-28T04:35:32;101110.09;;;10.82;70.81
23427;BME280;41148;45.420;10.952;2023-04-28T04:37:59;101113.47;;;10.91;70.79
23427;BME280;41148;45.420;10.952;2023-04-28T04:40:27;101114.81;;;11.10;70.65
23427;BME280;41148;45.420;10.952;2023-04-28T04:42:55;101111.97;;;11.16;70.20
23427;BME280;41148;45.420;10.952;2023-04-28T04:45:26;101104.84;;;11.16;70.39
23427;BME280;41148;45.420;10.952;2023-04-28T04:47:54;101100.44;;;11.15;70.75
23427;BME280;41148;45.420;10.952;2023-04-28T04:50:21;101100.34;;;11.18;70.55
23427;BME280;41148;45.420;10.952;2023-04-28T04:52:49;101098.59;;;11.17;70.78
23427;BME280;41148;45.420;10.952;2023-04-28T04:55:17;101089.84;;;11.12;71.27
23427;BME280;41148;45.420;10.952;2023-04-28T04:57:44;101102.13;;;11.20;71.61
23427;BME280;41148;45.420;10.952;2023-04-28T05:00:24;101088.28;;;11.04;71.76
23427;BME280;41148;45.420;10.952;2023-04-28T05:02:53;101105.69;;;11.18;71.57
23427;BME280;41148;45.420;10.952;2023-04-28T05:05:21;101117.94;;;11.27;71.46
23427;BME280;41148;45.420;10.952;2023-04-28T05:08:11;101110.97;;;11.22;72.16
23427;BME280;41148;45.420;10.952;2023-04-28T05:10:38;101099.59;;;11.13;72.12
23427;BME280;41148;45.420;10.952;2023-04-28T05:13:06;101105.47;;;11.28;71.59
23427;BME280;41148;45.420;10.952;2023-04-28T05:15:34;101114.34;;;11.30;71.81
23427;BME280;41148;45.420;10.952;2023-04-28T05:18:14;101111.88;;;11.21;71.54
23427;BME280;41148;45.420;10.952;2023-04-28T05:20:42;101111.03;;;11.18;71.14
23427;BME280;41148;45.420;10.952;2023-04-28T05:23:10;101131.09;;;11.35;71.32
23427;BME280;41148;45.420;10.952;2023-04-28T05:25:38;101115.03;;;11.36;70.74
23427;BME280;41148;45.420;10.952;2023-04-28T05:28:08;101127.44;;;11.39;71.38
23427;BME280;41148;45.420;10.952;2023-04-28T05:30:36;101114.59;;;11.55;70.31
23427;BME280;41148;45.420;10.952;2023-04-28T05:33:03;101125.81;;;11.67;70.46
23427;BME280;41148;45.420;10.952;2023-04-28T05:35:31;101127.38;;;11.76;70.32
23427;BME280;41148;45.420;10.952;2023-04-28T05:37:59;101125.16;;;11.59;70.08
23427;BME280;41148;45.420;10.952;2023-04-28T05:40:26;101152.22;;;11.81;69.02
23427;BME280;41148;45.420;10.952;2023-04-28T05:42:55;101128.25;;;11.78;69.17
23427;BME280;41148;45.420;10.952;2023-04-28T05:45:22;101144.59;;;12.00;68.96
23427;BME280;41148;45.420;10.952;2023-04-28T05:47:50;101134.59;;;12.08;68.81
23427;BME280;41148;45.420;10.952;2023-04-28T05:50:17;101138.19;;;12.07;69.07
23427;BME280;41148;45.420;10.952;2023-04-28T05:52:45;101131.03;;;12.08;69.26
23427;BME280;41148;45.420;10.952;2023-04-28T05:55:12;101114.16;;;12.07;69.95
23427;BME280;41148;45.420;10.952;2023-04-28T05:57:40;101131.38;;;12.28;70.43
23427;BME280;41148;45.420;10.952;2023-04-28T06:00:19;101126.09;;;12.25;69.87
23427;BME280;41148;45.420;10.952;2023-04-28T06:02:48;101124.22;;;12.28;70.50
23427;BME280;41148;45.420;10.952;2023-04-28T06:05:17;101134.88;;;12.30;71.33
23427;BME280;41148;45.420;10.952;2023-04-28T06:07:49;101131.56;;;12.20;69.69
23427;BME280;41148;45.420;10.952;2023-04-28T06:10:20;101149.25;;;12.24;70.24
23427;BME280;41148;45.420;10.952;2023-04-28T06:12:48;101154.25;;;12.38;71.11
23427;BME280;41148;45.420;10.952;2023-04-28T06:15:15;101171.88;;;12.45;71.75
23427;BME280;41148;45.420;10.952;2023-04-28T06:17:43;101164.41;;;12.56;72.43
23427;BME280;41148;45.420;10.952;2023-04-28T06:20:11;101151.72;;;12.63;72.67
23427;BME280;41148;45.420;10.952;2023-04-28T06:22:40;101157.81;;;12.68;73.05
23427;BME280;41148;45.420;10.952;2023-04-28T06:25:08;101156.53;;;12.81;72.95
23427;BME280;41148;45.420;10.952;2023-04-28T06:27:42;101147.38;;;12.90;72.65
23427;BME280;41148;45.420;10.952;2023-04-28T06:30:16;101148.78;;;13.02;72.56
23427;BME280;41148;45.420;10.952;2023-04-28T06:32:45;101125.34;;;13.10;72.63
23427;BME280;41148;45.420;10.952;2023-04-28T06:35:14;101142.44;;;13.06;72.28
23427;BME280;41148;45.420;10.952;2023-04-28T06:37:41;101134.34;;;13.07;73.00
23427;BME280;41148;45.420;10.952;2023-04-28T06:40:10;101139.75;;;13.06;71.50
23427;BME280;41148;45.420;10.952;2023-04-28T06:42:40;101153.63;;;13.18;71.11
23427;BME280;41148;45.420;10.952;2023-04-28T06:45:17;101154.47;;;13.21;71.31
23427;BME280;41148;45.420;10.952;2023-04-28T06:47:44;101161.50;;;13.25;71.03
23427;BME280;41148;45.420;10.952;2023-04-28T06:50:12;101159.69;;;13.25;71.15
23427;BME280;41148;45.420;10.952;2023-04-28T06:52:41;101163.13;;;13.29;72.39
23427;BME280;41148;45.420;10.952;2023-04-28T06:55:09;101164.00;;;13.29;73.21
23427;BME280;41148;45.420;10.952;2023-04-28T06:57:36;101161.38;;;13.28;72.70
23427;BME280;41148;45.420;10.952;2023-04-28T07:00:05;101158.44;;;13.37;71.51
23427;BME280;41148;45.420;10.952;2023-04-28T07:02:32;101156.56;;;13.39;71.80
23427;BME280;41148;45.420;10.952;2023-04-28T07:05:00;101138.25;;;13.80;70.34
23427;BME280;41148;45.420;10.952;2023-04-28T07:07:33;101146.03;;;13.87;68.69
23427;BME280;41148;45.420;10.952;2023-04-28T07:10:03;101137.38;;;13.79;66.53
23427;BME280;41148;45.420;10.952;2023-04-28T07:12:30;101131.34;;;13.99;64.49
23427;BME280;41148;45.420;10.952;2023-04-28T07:14:58;101129.88;;;14.15;63.41
23427;BME280;41148;45.420;10.952;2023-04-28T07:17:25;101145.06;;;14.15;63.33
23427;BME280;41148;45.420;10.952;2023-04-28T07:19:53;101143.28;;;14.15;63.02
23427;BME280;41148;45.420;10.952;2023-04-28T07:22:20;101141.31;;;14.20;63.46
23427;BME280;41148;45.420;10.952;2023-04-28T07:24:47;101141.41;;;14.17;62.08
23427;BME280;41148;45.420;10.952;2023-04-28T07:27:15;101145.69;;;14.23;59.04
23427;BME280;41148;45.420;10.952;2023-04-28T07:29:43;101137.38;;;14.30;59.89
23427;BME280;41148;45.420;10.952;2023-04-28T07:32:10;101151.09;;;14.46;57.30
23427;BME280;41148;45.420;10.952;2023-04-28T07:34:38;101137.81;;;14.67;57.19
23427;BME280;41148;45.420;10.952;2023-04-28T07:37:05;101151.44;;;14.62;57.22
23427;BME280;41148;45.420;10.952;2023-04-28T07:39:33;101129.75;;;14.68;56.75
23427;BME280;41148;45.420;10.952;2023-04-28T07:42:01;101134.72;;;14.79;55.45
23427;BME280;41148;45.420;10.952;2023-04-28T07:44:30;101137.31;;;14.80;55.96
23427;BME280;41148;45.420;10.952;2023-04-28T07:46:58;101137.13;;;14.85;55.52
23427;BME280;41148;45.420;10.952;2023-04-28T07:49:27;101147.41;;;14.97;50.04
23427;BME280;41148;45.420;10.952;2023-04-28T07:51:55;101134.09;;;15.17;46.56
23427;BME280;41148;45.420;10.952;2023-04-28T07:54:22;101139.16;;;15.25;46.33
23427;BME280;41148;45.420;10.952;2023-04-28T07:56:50;101149.56;;;15.33;47.88
23427;BME280;41148;45.420;10.952;2023-04-28T07:59:17;101131.13;;;15.24;44.89
23427;BME280;41148;45.420;10.952;2023-04-28T08:01:45;101150.06;;;15.42;44.92
23427;BME280;41148;45.420;10.952;2023-04-28T08:04:12;101140.53;;;15.35;46.26
23427;BME280;41148;45.420;10.952;2023-04-28T08:06:41;101148.31;;;15.41;45.53
23427;BME280;41148;45.420;10.952;2023-04-28T08:09:08;101137.56;;;15.41;46.49
23427;BME280;41148;45.420;10.952;2023-04-28T08:11:36;101147.56;;;15.60;46.95
23427;BME280;41148;45.420;10.952;2023-04-28T08:14:03;101144.38;;;15.72;44.67
23427;BME280;41148;45.420;10.952;2023-04-28T08:16:31;101137.81;;;15.57;45.27
23427;BME280;41148;45.420;10.952;2023-04-28T08:18:59;101136.63;;;15.86;42.74
23427;BME280;41148;45.420;10.952;2023-04-28T08:21:26;101147.53;;;16.03;42.80
23427;BME280;41148;45.420;10.952;2023-04-28T08:23:54;101135.38;;;15.95;44.05
23427;BME280;41148;45.420;10.952;2023-04-28T08:26:21;101137.84;;;15.99;44.11
23427;BME280;41148;45.420;10.952;2023-04-28T08:28:51;101141.53;;;16.38;42.01
23427;BME280;41148;45.420;10.952;2023-04-28T08:31:19;101132.09;;;16.48;41.63
23427;BME280;41148;45.420;10.952;2023-04-28T08:33:46;101122.88;;;16.74;38.92
23427;BME280;41148;45.420;10.952;2023-04-28T08:36:17;101124.06;;;16.67;39.92
23427;BME280;41148;45.420;10.952;2023-04-28T08:38:44;101136.34;;;16.74;39.75
23427;BME280;41148;45.420;10.952;2023-04-28T08:41:14;101137.66;;;16.64;40.23
23427;BME280;41148;45.420;10.952;2023-04-28T08:43:42;101100.81;;;16.66;39.79
23427;BME280;41148;45.420;10.952;2023-04-28T08:46:09;101104.41;;;16.85;37.91
23427;BME280;41148;45.420;10.952;2023-04-28T08:48:41;101108.41;;;16.76;40.22
23427;BME280;41148;45.420;10.952;2023-04-28T08:51:14;101101.94;;;16.80;40.47
23427;BME280;41148;45.420;10.952;2023-04-28T08:53:44;101118.13;;;16.79;40.79
23427;BME280;41148;45.420;10.952;2023-04-28T08:56:35;101107.19;;;17.02;40.29
23427;BME280;41148;45.420;10.952;2023-04-28T08:59:03;101101.56;;;17.07;40.96
23427;BME280;41148;45.420;10.952;2023-04-28T09:01:31;101128.16;;;17.32;41.02
23427;BME280;41148;45.420;10.952;2023-04-28T09:04:00;101103.19;;;17.47;40.15
23427;BME280;41148;45.420;10.952;2023-04-28T09:06:36;101116.72;;;17.82;39.63
23427;BME280;41148;45.420;10.952;2023-04-28T09:11:57;101112.97;;;18.19;39.55
23427;BME280;41148;45.420;10.952;2023-04-28T09:14:30;101113.97;;;17.64;40.07
23427;BME280;41148;45.420;10.952;2023-04-28T09:17:02;101103.50;;;17.22;40.21
23427;BME280;41148;45.420;10.952;2023-04-28T09:19:36;101119.44;;;17.63;37.13
23427;BME280;41148;45.420;10.952;2023-04-28T09:22:05;101107.41;;;18.22;36.38
23427;BME280;41148;45.420;10.952;2023-04-28T09:24:52;101108.47;;;18.52;36.36
23427;BME280;41148;45.420;10.952;2023-04-28T09:27:30;101099.81;;;18.63;37.11
23427;BME280;41148;45.420;10.952;2023-04-28T09:29:58;101097.72;;;18.35;35.45
23427;BME280;41148;45.420;10.952;2023-04-28T09:32:25;101102.75;;;17.91;37.44
23427;BME280;41148;45.420;10.952;2023-04-28T09:34:55;101108.34;;;17.69;36.74
23427;BME280;41148;45.420;10.952;2023-04-28T09:37:24;101107.75;;;17.98;37.70
23427;BME280;41148;45.420;10.952;2023-04-28T09:39:53;101112.03;;;18.20;37.61
23427;BME280;41148;45.420;10.952;2023-04-28T09:42:42;101120.84;;;18.06;37.09
23427;BME280;41148;45.420;10.952;2023-04-28T09:45:14;101119.63;;;18.29;36.21
23427;BME280;41148;45.420;10.952;2023-04-28T09:47:45;101106.16;;;18.29;37.47
23427;BME280;41148;45.420;10.952;2023-04-28T09:50:14;101101.22;;;18.37;37.67
23427;BME280;41148;45.420;10.952;2023-04-28T09:52:45;101102.00;;;18.39;37.64
23427;BME280;41148;45.420;10.952;2023-04-28T09:55:51;101109.91;;;18.42;36.86
23427;BME280;41148;45.420;10.952;2023-04-28T09:58:20;101113.06;;;18.50;36.71
23427;BME280;41148;45.420;10.952;2023-04-28T10:00:52;101106.78;;;18.34;35.68
23427;BME280;41148;45.420;10.952;2023-04-28T10:03:22;101096.53;;;18.23;37.81
23427;BME280;41148;45.420;10.952;2023-04-28T10:05:55;101092.34;;;18.35;36.27
23427;BME280;41148;45.420;10.952;2023-04-28T10:08:23;101079.59;;;18.54;33.88
23427;BME280;41148;45.420;10.952;2023-04-28T10:10:51;101068.34;;;18.62;34.90
23427;BME280;41148;45.420;10.952;2023-04-28T10:13:21;101066.00;;;18.56;35.96
23427;BME280;41148;45.420;10.952;2023-04-28T10:15:49;101070.34;;;18.58;35.82
23427;BME280;41148;45.420;10.952;2023-04-28T10:18:17;101064.19;;;18.56;36.56
23427;BME280;41148;45.420;10.952;2023-04-28T10:20:48;101061.00;;;18.66;35.96
23427;BME280;41148;45.420;10.952;2023-04-28T10:26:09;101053.25;;;18.42;35.72
23427;BME280;41148;45.420;10.952;2023-04-28T10:28:44;101041.97;;;18.51;35.78
23427;BME280;41148;45.420;10.952;2023-04-28T10:31:14;101044.16;;;18.45;36.02
23427;BME280;41148;45.420;10.952;2023-04-28T10:33:43;101042.06;;;18.50;35.50
23427;BME280;41148;45.420;10.952;2023-04-28T10:36:49;101038.56;;;18.65;34.01
23427;BME280;41148;45.420;10.952;2023-04-28T10:39:17;101031.81;;;18.56;33.64
23427;BME280;41148;45.420;10.952;2023-04-28T10:41:46;101025.88;;;18.50;32.80
23427;BME280;41148;45.420;10.952;2023-04-28T10:47:02;101027.47;;;18.70;33.36
23427;BME280;41148;45.420;10.952;2023-04-28T10:55:30;101017.44;;;19.19;34.93
23427;BME280;41148;45.420;10.952;2023-04-28T11:00:46;101006.56;;;19.21;33.96
23427;BME280;41148;45.420;10.952;2023-04-28T11:08:52;101009.34;;;19.19;34.13
23427;BME280;41148;45.420;10.952;2023-04-28T11:11:23;101012.03;;;19.19;32.75
23427;BME280;41148;45.420;10.952;2023-04-28T11:22:05;101021.28;;;19.31;30.98
23427;BME280;41148;45.420;10.952;2023-04-28T11:24:38;101025.31;;;19.38;31.05
23427;BME280;41148;45.420;10.952;2023-04-28T11:27:05;101014.34;;;19.41;32.36
23427;BME280;41148;45.420;10.952;2023-04-28T11:29:39;101017.06;;;19.41;32.64
23427;BME280;41148;45.420;10.952;2023-04-28T11:32:08;101010.94;;;19.37;33.23
23427;BME280;41148;45.420;10.952;2023-04-28T11:34:36;101002.50;;;19.43;32.46
23427;BME280;41148;45.420;10.952;2023-04-28T11:37:04;101000.44;;;19.33;32.74
23427;BME280;41148;45.420;10.952;2023-04-28T11:39:35;100998.63;;;19.17;33.68
23427;BME280;41148;45.420;10.952;2023-04-28T11:42:09;101010.13;;;19.21;34.74
23427;BME280;41148;45.420;10.952;2023-04-28T11:44:37;100996.63;;;19.21;34.69
23427;BME280;41148;45.420;10.952;2023-04-28T11:47:06;100992.78;;;19.25;33.36
23427;BME280;41148;45.420;10.952;2023-04-28T11:49:43;100983.38;;;19.16;34.07
23427;BME280;41148;45.420;10.952;2023-04-28T11:52:12;100996.22;;;19.43;32.27
23427;BME280;41148;45.420;10.952;2023-04-28T11:54:39;100990.06;;;19.55;32.80
23427;BME280;41148;45.420;10.952;2023-04-28T11:57:20;100982.91;;;19.40;33.24
23427;BME280;41148;45.420;10.952;2023-04-28T11:59:48;100980.47;;;19.35;35.23
23427;BME280;41148;45.420;10.952;2023-04-28T12:02:24;100960.59;;;19.36;36.08
23427;BME280;41148;45.420;10.952;2023-04-28T12:04:54;100961.97;;;19.43;36.27
23427;BME280;41148;45.420;10.952;2023-04-28T12:07:21;100957.78;;;19.38;36.98
23427;BME280;41148;45.420;10.952;2023-04-28T12:10:10;100957.47;;;19.58;36.00
23427;BME280;41148;45.420;10.952;2023-04-28T12:12:38;100952.69;;;19.48;36.18
23427;BME280;41148;45.420;10.952;2023-04-28T12:15:16;100951.56;;;19.52;35.51
23427;BME280;41148;45.420;10.952;2023-04-28T12:17:46;100943.91;;;19.60;35.63
23427;BME280;41148;45.420;10.952;2023-04-28T12:20:37;100939.75;;;19.83;34.67
23427;BME280;41148;45.420;10.952;2023-04-28T12:23:05;100950.34;;;19.57;35.55
23427;BME280;41148;45.420;10.952;2023-04-28T12:25:42;100940.31;;;19.73;34.43
23427;BME280;41148;45.420;10.952;2023-04-28T12:28:10;100943.91;;;19.60;35.72
23427;BME280;41148;45.420;10.952;2023-04-28T12:30:38;100941.34;;;19.57;35.78
23427;BME280;41148;45.420;10.952;2023-04-28T12:33:25;100925.28;;;19.69;36.48
23427;BME280;41148;45.420;10.952;2023-04-28T12:35:54;100930.38;;;19.74;36.06
23427;BME280;41148;45.420;10.952;2023-04-28T12:38:23;100928.06;;;19.82;35.66
23427;BME280;41148;45.420;10.952;2023-04-28T12:40:51;100922.38;;;19.72;35.64
23427;BME280;41148;45.420;10.952;2023-04-28T12:43:19;100928.03;;;19.68;34.65
23427;BME280;41148;45.420;10.952;2023-04-28T12:45:50;100919.78;;;19.71;35.62
23427;BME280;41148;45.420;10.952;2023-04-28T12:48:19;100915.22;;;19.86;34.53
23427;BME280;41148;45.420;10.952;2023-04-28T12:50:47;100911.56;;;19.72;35.63
23427;BME280;41148;45.420;10.952;2023-04-28T12:53:15;100910.59;;;19.59;35.85
23427;BME280;41148;45.420;10.952;2023-04-28T12:55:43;100910.22;;;19.35;36.25
23427;BME280;41148;45.420;10.952;2023-04-28T12:58:10;100901.84;;;19.40;36.82
23427;BME280;41148;45.420;10.952;2023-04-28T13:00:38;100897.84;;;19.76;35.30
23427;BME280;41148;45.420;10.952;2023-04-28T13:03:08;100884.91;;;19.66;34.52
23427;BME280;41148;45.420;10.952;2023-04-28T13:05:35;100893.97;;;19.65;35.86
23427;BME280;41148;45.420;10.952;2023-04-28T13:08:03;100882.97;;;19.68;35.29
23427;BME280;41148;45.420;10.952;2023-04-28T13:10:31;100881.06;;;19.70;35.42
23427;BME280;41148;45.420;10.952;2023-04-28T13:12:58;100879.13;;;19.72;36.11
23427;BME280;41148;45.420;10.952;2023-04-28T13:15:25;100877.38;;;19.71;35.50
23427;BME280;41148;45.420;10.952;2023-04-28T13:17:53;100875.03;;;19.51;36.70
23427;BME280;41148;45.420;10.952;2023-04-28T13:20:21;100867.69;;;19.53;36.64
23427;BME280;41148;45.420;10.952;2023-04-28T13:22:53;100863.09;;;19.69;36.36